createdAt,value
2018-09-01T00:01:37.161Z,24.87
2018-09-01T00:04:10.324Z,24.83
2018-09-01T00:06:43.069Z,26.40
2018-09-01T00:09:16.069Z,27.90
2018-09-01T00:11:50.697Z,27.23
2018-09-01T00:14:25.722Z,29.83
2018-09-01T00:17:00.390Z,32.13
2018-09-01T00:19:33.258Z,38.07
2018-09-01T00:22:06.099Z,42.77
2018-09-01T00:24:38.777Z,44.37
2018-09-01T00:27:35.497Z,44.67
2018-09-01T00:30:09.508Z,55.43
2018-09-01T00:32:43.853Z,54.90
2018-09-01T00:35:18.648Z,58.93
2018-09-01T00:37:57.378Z,54.53
2018-09-01T00:40:31.225Z,52.33
2018-09-01T00:43:07.619Z,50.07
2018-09-01T00:45:42.226Z,52.17
2018-09-01T00:48:50.999Z,52.83
2018-09-01T00:51:25.485Z,47.10
2018-09-01T00:54:00.827Z,43.57
2018-09-01T00:56:36.570Z,45.57
2018-09-01T00:59:11.290Z,48.07
2018-09-01T01:01:45.444Z,49.10
2018-09-01T01:04:19.302Z,50.50
2018-09-01T01:06:53.673Z,47.27
2018-09-01T01:09:26.821Z,47.20
2018-09-01T01:12:00.874Z,49.40
2018-09-01T01:14:35.435Z,46.57
2018-09-01T01:17:15.512Z,48.53
2018-09-01T01:20:14.228Z,44.60
2018-09-01T01:22:47.074Z,42.47
2018-09-01T01:25:20.177Z,47.10
2018-09-01T01:28:11.796Z,43.87
2018-09-01T01:34:07.587Z,44.47
2018-09-01T01:40:01.291Z,44.90
2018-09-01T01:42:35.331Z,40.47
2018-09-01T01:45:08.884Z,40.13
2018-09-01T01:47:44.411Z,43.50
2018-09-01T01:50:18.375Z,40.43
2018-09-01T01:56:12.147Z,41.30
2018-09-01T01:58:45.800Z,45.00
2018-09-01T02:01:18.544Z,47.00
2018-09-01T02:03:52.608Z,44.57
2018-09-01T02:06:26.234Z,47.27
2018-09-01T02:08:59.431Z,43.53
2018-09-01T02:11:36.779Z,46.17
2018-09-01T02:14:09.876Z,47.80
2018-09-01T02:16:44.593Z,47.57
2018-09-01T02:19:18.023Z,48.63
2018-09-01T02:22:35.306Z,51.00
2018-09-01T02:25:08.835Z,50.27
2018-09-01T02:27:41.926Z,54.10
2018-09-01T02:30:14.913Z,50.63
2018-09-01T02:32:48.122Z,47.90
2018-09-01T02:35:21.014Z,49.70
2018-09-01T02:37:54.872Z,44.97
2018-09-01T02:40:27.867Z,43.50
2018-09-01T02:43:01.446Z,47.30
2018-09-01T02:45:38.394Z,49.57
2018-09-01T02:48:13.757Z,46.20
2018-09-01T02:50:47.444Z,43.53
2018-09-01T02:53:21.881Z,51.93
2018-09-01T02:55:55.641Z,47.10
2018-09-01T02:58:29.133Z,46.17
2018-09-01T03:01:08.270Z,45.30
2018-09-01T03:03:42.214Z,47.57
2018-09-01T03:06:15.848Z,47.07
2018-09-01T03:08:50.040Z,41.53
2018-09-01T03:11:24.083Z,44.10
2018-09-01T03:13:57.756Z,49.30
2018-09-01T03:16:31.412Z,43.80
2018-09-01T03:19:04.932Z,45.30
2018-09-01T03:21:48.147Z,42.93
2018-09-01T03:24:22.708Z,42.37
2018-09-01T03:26:55.629Z,39.43
2018-09-01T03:29:29.672Z,38.33
2018-09-01T03:32:04.178Z,34.23
2018-09-01T03:34:38.014Z,36.70
2018-09-01T03:37:12.808Z,31.77
2018-09-01T03:39:47.706Z,32.10
2018-09-01T03:42:21.845Z,27.77
2018-09-01T03:44:55.429Z,25.33
2018-09-01T03:47:29.105Z,24.83
2018-09-01T03:50:02.618Z,23.50
2018-09-01T03:56:05.295Z,28.67
2018-09-01T03:58:37.996Z,26.70
2018-09-01T04:01:11.108Z,28.00
2018-09-01T04:03:43.700Z,25.47
2018-09-01T04:06:17.121Z,22.00
2018-09-01T04:08:49.283Z,19.90
2018-09-01T04:11:21.626Z,17.90
2018-09-01T04:13:55.169Z,15.80
2018-09-01T04:16:31.948Z,15.83
2018-09-01T04:22:26.590Z,11.33
2018-09-01T04:24:58.835Z,12.57
2018-09-01T04:27:31.190Z,11.43
2018-09-01T04:30:03.502Z,12.07
2018-09-01T04:32:36.174Z,11.57
2018-09-01T04:35:08.453Z,11.57
2018-09-01T04:37:40.755Z,11.70
2018-09-01T04:40:13.008Z,11.40
2018-09-01T04:42:45.713Z,12.00
2018-09-01T04:45:18.100Z,14.57
2018-09-01T04:47:50.980Z,12.70
2018-09-01T04:50:23.382Z,15.83
2018-09-01T04:52:55.756Z,19.13
2018-09-01T04:55:28.649Z,10.63
2018-09-01T04:58:00.868Z,14.53
2018-09-01T05:03:54.049Z,14.00
2018-09-01T05:06:26.222Z,13.10
2018-09-01T05:08:58.439Z,14.27
2018-09-01T05:11:30.631Z,14.13
2018-09-01T05:14:02.877Z,11.90
2018-09-01T05:16:35.559Z,11.10
2018-09-01T05:19:07.924Z,9.47
2018-09-01T05:21:40.141Z,8.77
2018-09-01T05:24:12.325Z,8.07
2018-09-01T05:26:44.613Z,9.37
2018-09-01T05:29:16.831Z,10.63
2018-09-01T05:31:49.055Z,9.20
2018-09-01T05:34:21.571Z,7.50
2018-09-01T05:36:53.730Z,6.80
2018-09-01T05:39:26.045Z,8.30
2018-09-01T05:41:58.191Z,8.80
2018-09-01T05:44:30.368Z,10.70
2018-09-01T05:47:02.966Z,14.17
2018-09-01T05:49:35.152Z,14.80
2018-09-01T05:52:07.440Z,11.37
2018-09-01T05:54:39.931Z,20.43
2018-09-01T05:57:12.328Z,15.57
2018-09-01T05:59:44.684Z,17.97
2018-09-01T06:02:17.006Z,14.60
2018-09-01T06:04:49.848Z,15.83
2018-09-01T06:07:22.261Z,15.33
2018-09-01T06:09:54.535Z,18.23
2018-09-01T06:12:26.748Z,24.73
2018-09-01T06:14:59.152Z,23.50
2018-09-01T06:17:31.406Z,23.33
2018-09-01T06:20:03.993Z,21.03
2018-09-01T06:22:36.291Z,10.80
2018-09-01T06:25:08.644Z,10.00
2018-09-01T06:27:50.048Z,9.23
2018-09-01T06:30:25.500Z,8.47
2018-09-01T06:32:58.265Z,9.60
2018-09-01T06:35:30.377Z,7.83
2018-09-01T06:38:02.580Z,8.37
2018-09-01T06:40:35.166Z,7.47
2018-09-01T06:43:08.564Z,6.97
2018-09-01T06:49:02.016Z,7.10
2018-09-01T06:51:34.915Z,7.07
2018-09-01T06:54:09.578Z,6.67
2018-09-01T06:56:43.148Z,7.83
2018-09-01T06:59:16.784Z,8.70
2018-09-01T07:01:50.063Z,8.27
2018-09-01T07:04:23.445Z,7.13
2018-09-01T07:06:56.871Z,7.40
2018-09-01T07:09:31.028Z,8.00
2018-09-01T07:12:04.421Z,7.17
2018-09-01T07:14:37.939Z,6.90
2018-09-01T07:20:42.005Z,12.27
2018-09-01T07:23:15.155Z,13.23
2018-09-01T07:25:47.933Z,12.87
2018-09-01T07:28:20.879Z,16.50
2018-09-01T07:30:53.759Z,17.13
2018-09-01T07:33:26.814Z,16.97
2018-09-01T07:35:59.705Z,15.53
2018-09-01T07:38:33.465Z,15.33
2018-09-01T07:41:06.426Z,18.13
2018-09-01T07:43:38.762Z,18.20
2018-09-01T07:46:11.655Z,21.07
2018-09-01T07:48:45.605Z,14.83
2018-09-01T07:51:18.599Z,7.70
2018-09-01T07:53:51.557Z,6.07
2018-09-01T07:56:24.360Z,7.73
2018-09-01T07:58:57.024Z,5.93
2018-09-01T08:01:29.844Z,8.47
2018-09-01T08:04:02.996Z,9.13
2018-09-01T08:06:35.829Z,6.93
2018-09-01T08:09:09.632Z,4.47
2018-09-01T08:11:42.450Z,3.60
2018-09-01T08:14:15.412Z,2.97
2018-09-01T08:16:48.814Z,3.10
2018-09-01T08:19:22.220Z,2.83
2018-09-01T08:21:55.462Z,2.60
2018-09-01T08:24:28.116Z,2.90
2018-09-01T08:27:01.276Z,2.37
2018-09-01T08:29:34.043Z,2.63
2018-09-01T08:32:40.088Z,2.90
2018-09-01T08:35:12.836Z,3.23
2018-09-01T08:37:46.145Z,2.47
2018-09-01T08:40:19.749Z,2.83
2018-09-01T08:42:52.879Z,3.03
2018-09-01T08:45:26.022Z,3.60
2018-09-01T08:47:59.287Z,3.43
2018-09-01T08:50:32.288Z,3.40
2018-09-01T08:53:05.155Z,8.30
2018-09-01T08:55:38.369Z,12.20
2018-09-01T08:58:11.480Z,10.83
2018-09-01T09:00:44.279Z,7.70
2018-09-01T09:03:16.995Z,6.93
2018-09-01T09:05:49.836Z,5.40
2018-09-01T09:08:22.876Z,5.43
2018-09-01T09:10:55.847Z,4.27
2018-09-01T09:13:28.756Z,4.87
2018-09-01T09:16:01.130Z,4.20
2018-09-01T09:18:34.242Z,5.00
2018-09-01T09:21:07.204Z,11.17
2018-09-01T09:23:40.210Z,20.03
2018-09-01T09:26:13.326Z,19.47
2018-09-01T09:28:46.388Z,15.53
2018-09-01T09:31:19.314Z,7.83
2018-09-01T09:33:52.423Z,5.93
2018-09-01T09:36:25.201Z,5.60
2018-09-01T09:38:58.296Z,5.10
2018-09-01T09:41:31.812Z,4.47
2018-09-01T09:44:04.739Z,4.10
2018-09-01T09:46:39.463Z,4.17
2018-09-01T09:49:12.490Z,4.00
2018-09-01T09:51:47.159Z,3.73
2018-09-01T09:54:20.350Z,3.90
2018-09-01T09:56:53.555Z,4.37
2018-09-01T09:59:26.344Z,4.60
2018-09-01T10:02:03.711Z,5.10
2018-09-01T10:04:36.626Z,5.60
2018-09-01T10:07:09.531Z,4.43
2018-09-01T10:13:02.927Z,8.67
2018-09-01T10:15:35.520Z,5.73
2018-09-01T10:18:09.106Z,5.37
2018-09-01T10:20:42.288Z,5.10
2018-09-01T10:23:14.662Z,5.07
2018-09-01T10:25:47.594Z,4.70
2018-09-01T10:28:20.237Z,4.53
2018-09-01T10:30:53.043Z,4.13
2018-09-01T10:33:25.701Z,3.93
2018-09-01T10:35:58.664Z,4.37
2018-09-01T10:38:31.941Z,4.10
2018-09-01T10:41:05.266Z,4.70
2018-09-01T10:43:38.206Z,6.90
2018-09-01T10:46:11.619Z,10.27
2018-09-01T10:48:44.997Z,6.87
2018-09-01T10:51:18.742Z,5.37
2018-09-01T10:53:51.759Z,5.07
2018-09-01T10:56:24.424Z,7.20
2018-09-01T10:58:57.431Z,9.33
2018-09-01T11:01:30.212Z,4.80
2018-09-01T11:04:03.171Z,5.77
2018-09-01T11:06:36.160Z,10.60
2018-09-01T11:09:12.134Z,13.57
2018-09-01T11:11:44.901Z,15.63
2018-09-01T11:14:17.841Z,24.47
2018-09-01T11:16:50.655Z,37.27
2018-09-01T11:19:23.671Z,39.50
2018-09-01T11:21:56.302Z,46.23
2018-09-01T11:24:28.909Z,36.63
2018-09-01T11:27:01.795Z,29.47
2018-09-01T11:29:34.518Z,29.47
2018-09-01T11:32:07.402Z,25.37
2018-09-01T11:34:39.868Z,18.77
2018-09-01T11:37:12.693Z,16.70
2018-09-01T11:39:45.501Z,15.50
2018-09-01T11:42:18.318Z,15.57
2018-09-01T11:44:51.172Z,16.73
2018-09-01T11:47:24.275Z,14.70
2018-09-01T11:50:01.134Z,19.93
2018-09-01T11:52:36.286Z,19.40
2018-09-01T11:55:09.832Z,21.00
2018-09-01T11:57:42.588Z,17.47
2018-09-01T12:00:17.799Z,14.57
2018-09-01T12:02:50.482Z,16.73
2018-09-01T12:05:23.299Z,19.20
2018-09-01T12:07:56.235Z,21.40
2018-09-01T12:10:29.055Z,20.53
2018-09-01T12:13:03.034Z,19.43
2018-09-01T12:15:37.818Z,17.40
2018-09-01T12:18:10.795Z,15.00
2018-09-01T12:20:43.893Z,13.03
2018-09-01T12:23:16.592Z,13.00
2018-09-01T12:25:49.237Z,10.50
2018-09-01T12:28:22.645Z,9.37
2018-09-01T12:30:57.461Z,4.33
2018-09-01T12:33:30.657Z,4.30
2018-09-01T12:36:04.622Z,4.37
2018-09-01T12:38:38.819Z,4.30
2018-09-01T12:41:11.637Z,3.90
2018-09-01T12:43:44.699Z,3.63
2018-09-01T12:46:17.247Z,7.20
2018-09-01T12:48:49.791Z,5.60
2018-09-01T12:51:22.599Z,6.03
2018-09-01T12:53:55.600Z,9.37
2018-09-01T12:56:29.371Z,9.87
2018-09-01T12:59:02.019Z,11.00
2018-09-01T13:01:34.564Z,10.30
2018-09-01T13:04:06.936Z,5.93
2018-09-01T13:06:39.983Z,6.10
2018-09-01T13:09:13.030Z,7.60
2018-09-01T13:11:46.157Z,7.40
2018-09-01T13:14:19.545Z,8.00
2018-09-01T13:16:52.433Z,5.77
2018-09-01T13:19:24.864Z,7.67
2018-09-01T13:21:58.764Z,8.40
2018-09-01T13:24:32.718Z,6.83
2018-09-01T13:27:05.791Z,7.00
2018-09-01T13:29:39.758Z,7.47
2018-09-01T13:32:14.716Z,7.43
2018-09-01T13:34:49.136Z,7.90
2018-09-01T13:37:22.109Z,7.13
2018-09-01T13:39:54.957Z,6.73
2018-09-01T13:42:27.822Z,6.03
2018-09-01T13:45:00.342Z,7.87
2018-09-01T13:47:33.695Z,10.73
2018-09-01T13:50:06.519Z,5.77
2018-09-01T13:52:39.075Z,6.33
2018-09-01T13:55:11.484Z,5.87
2018-09-01T13:57:44.449Z,4.53
2018-09-01T14:00:17.561Z,5.10
2018-09-01T14:02:50.264Z,5.60
2018-09-01T14:05:23.059Z,6.20
2018-09-01T14:07:55.436Z,7.63
2018-09-01T14:10:28.686Z,6.40
2018-09-01T14:13:01.293Z,5.20
2018-09-01T14:15:33.764Z,4.87
2018-09-01T14:18:06.290Z,4.47
2018-09-01T14:20:39.862Z,4.30
2018-09-01T14:23:12.226Z,4.80
2018-09-01T14:25:44.849Z,5.30
2018-09-01T14:28:17.849Z,4.83
2018-09-01T14:30:50.948Z,4.47
2018-09-01T14:33:23.888Z,4.27
2018-09-01T14:35:57.189Z,5.83
2018-09-01T14:38:30.660Z,6.13
2018-09-01T14:41:03.712Z,5.73
2018-09-01T14:43:36.663Z,5.50
2018-09-01T14:46:09.165Z,4.67
2018-09-01T14:48:41.476Z,6.83
2018-09-01T14:51:14.461Z,6.57
2018-09-01T14:53:47.400Z,8.60
2018-09-01T14:56:21.333Z,6.33
2018-09-01T14:58:54.435Z,6.50
2018-09-01T15:01:27.106Z,6.17
2018-09-01T15:03:59.721Z,5.90
2018-09-01T15:06:33.039Z,5.43
2018-09-01T15:09:07.070Z,5.67
2018-09-01T15:11:40.096Z,9.80
2018-09-01T15:14:14.019Z,6.30
2018-09-01T15:16:46.848Z,5.80
2018-09-01T15:19:19.619Z,8.17
2018-09-01T15:21:52.377Z,7.63
2018-09-01T15:24:24.761Z,6.10
2018-09-01T15:26:57.553Z,8.23
2018-09-01T15:29:30.472Z,11.53
2018-09-01T15:32:03.559Z,9.23
2018-09-01T15:34:35.793Z,10.20
2018-09-01T15:37:08.225Z,11.10
2018-09-01T15:39:40.459Z,11.90
2018-09-01T15:42:12.822Z,11.80
2018-09-01T15:44:45.610Z,10.08
2018-09-01T15:47:17.841Z,11.43
2018-09-01T15:49:50.114Z,18.90
2018-09-01T15:52:22.816Z,8.20
2018-09-01T15:54:55.346Z,9.15
2018-09-01T15:57:27.775Z,8.48
2018-09-01T16:00:00.016Z,7.15
2018-09-01T16:02:32.274Z,6.60
2018-09-01T16:05:04.530Z,6.92
2018-09-01T16:07:37.071Z,6.72
2018-09-01T16:10:09.716Z,8.13
2018-09-01T16:12:42.066Z,7.55
2018-09-01T16:15:14.555Z,5.33
2018-09-01T16:17:46.865Z,6.30
2018-09-01T16:20:19.096Z,5.55
2018-09-01T16:22:51.539Z,4.90
2018-09-01T16:25:23.879Z,4.35
2018-09-01T16:27:56.256Z,4.90
2018-09-01T16:30:28.629Z,5.80
2018-09-01T16:33:01.405Z,6.03
2018-09-01T16:35:33.764Z,4.70
2018-09-01T16:38:06.079Z,5.80
2018-09-01T16:40:38.472Z,4.62
2018-09-01T16:43:11.500Z,3.92
2018-09-01T16:45:43.709Z,4.75
2018-09-01T16:48:16.570Z,4.62
2018-09-01T16:50:48.836Z,4.28
2018-09-01T16:53:21.498Z,4.92
2018-09-01T16:55:53.729Z,4.47
2018-09-01T16:58:25.971Z,4.47
2018-09-01T17:00:58.310Z,4.58
2018-09-01T17:03:30.700Z,4.65
2018-09-01T17:06:03.465Z,4.30
2018-09-01T17:08:35.867Z,4.20
2018-09-01T17:11:08.106Z,4.85
2018-09-01T17:13:41.167Z,6.20
2018-09-01T17:16:13.418Z,5.50
2018-09-01T17:18:46.136Z,5.12
2018-09-01T17:21:18.926Z,5.80
2018-09-01T17:23:51.590Z,4.03
2018-09-01T17:26:24.238Z,5.50
2018-09-01T17:28:56.484Z,5.08
2018-09-01T17:31:28.747Z,5.50
2018-09-01T17:34:00.993Z,4.60
2018-09-01T17:36:33.181Z,4.87
2018-09-01T17:39:07.078Z,4.55
2018-09-01T17:41:39.489Z,4.80
2018-09-01T17:44:12.030Z,3.75
2018-09-01T17:46:44.438Z,5.25
2018-09-01T17:49:17.057Z,3.95
2018-09-01T17:51:49.688Z,6.15
2018-09-01T17:54:22.064Z,5.25
2018-09-01T17:56:54.513Z,4.55
2018-09-01T17:59:26.721Z,4.40
2018-09-01T18:01:59.290Z,5.10
2018-09-01T18:04:31.721Z,7.12
2018-09-01T18:07:04.091Z,4.60
2018-09-01T18:09:36.327Z,5.10
2018-09-01T18:12:08.594Z,3.75
2018-09-01T18:14:40.847Z,4.47
2018-09-01T18:17:13.106Z,5.33
2018-09-01T18:19:45.431Z,5.85
2018-09-01T18:22:18.559Z,4.30
2018-09-01T18:24:50.833Z,6.87
2018-09-01T18:27:23.140Z,6.55
2018-09-01T18:29:55.530Z,5.35
2018-09-01T18:32:27.693Z,8.65
2018-09-01T18:35:00.164Z,7.60
2018-09-01T18:37:32.541Z,10.80
2018-09-01T18:40:04.761Z,7.37
2018-09-01T18:42:37.144Z,5.33
2018-09-01T18:45:10.533Z,4.97
2018-09-01T18:47:56.130Z,6.45
2018-09-01T18:50:28.386Z,6.47
2018-09-01T18:53:03.115Z,10.53
2018-09-01T18:55:35.345Z,5.15
2018-09-01T18:58:07.733Z,4.97
2018-09-01T19:00:40.557Z,4.10
2018-09-01T19:03:14.536Z,8.20
2018-09-01T19:05:46.851Z,5.75
2018-09-01T19:08:19.178Z,4.37
2018-09-01T19:10:52.596Z,4.80
2018-09-01T19:13:25.128Z,4.47
2018-09-01T19:15:57.472Z,4.90
2018-09-01T19:18:29.686Z,4.35
2018-09-01T19:21:02.155Z,4.00
2018-09-01T19:23:35.364Z,5.60
2018-09-01T19:26:07.893Z,3.83
2018-09-01T19:28:40.354Z,4.47
2018-09-01T19:31:13.320Z,3.98
2018-09-01T19:33:45.571Z,3.75
2018-09-01T19:36:18.315Z,4.33
2018-09-01T19:38:50.667Z,5.25
2018-09-01T19:41:23.129Z,3.67
2018-09-01T19:43:58.162Z,3.75
2018-09-01T19:46:31.649Z,4.45
2018-09-01T19:49:03.968Z,5.30
2018-09-01T19:51:36.509Z,5.12
2018-09-01T19:54:09.432Z,4.37
2018-09-01T19:56:41.755Z,4.25
2018-09-01T19:59:14.029Z,4.55
2018-09-01T20:01:46.382Z,3.85
2018-09-01T20:04:18.700Z,3.72
2018-09-01T20:06:51.217Z,5.53
2018-09-01T20:09:23.585Z,3.47
2018-09-01T20:11:56.423Z,3.98
2018-09-01T20:14:29.047Z,3.92
2018-09-01T20:17:01.410Z,3.75
2018-09-01T20:19:33.848Z,3.00
2018-09-01T20:22:07.661Z,4.07
2018-09-01T20:24:40.299Z,4.90
2018-09-01T20:27:13.113Z,4.67
2018-09-01T20:29:45.363Z,4.80
2018-09-01T20:32:17.661Z,6.08
2018-09-01T20:34:50.648Z,4.47
2018-09-01T20:37:25.987Z,5.50
2018-09-01T20:39:58.735Z,5.00
2018-09-01T20:42:31.047Z,5.90
2018-09-01T20:45:04.014Z,5.33
2018-09-01T20:47:36.312Z,4.58
2018-09-01T20:50:08.687Z,7.87
2018-09-01T20:52:40.999Z,3.97
2018-09-01T20:55:13.399Z,4.50
2018-09-01T20:57:46.098Z,3.67
2018-09-01T21:00:18.374Z,4.83
2018-09-01T21:02:50.672Z,6.50
2018-09-01T21:05:23.005Z,8.20
2018-09-01T21:07:55.299Z,11.13
2018-09-01T21:10:27.920Z,11.63
2018-09-01T21:13:00.194Z,12.63
2018-09-01T21:15:32.680Z,10.90
2018-09-01T21:18:05.228Z,13.67
2018-09-01T21:20:38.483Z,10.03
2018-09-01T21:23:10.907Z,10.73
2018-09-01T21:25:43.404Z,16.07
2018-09-01T21:28:16.869Z,13.93
2018-09-01T21:30:52.374Z,15.33
2018-09-01T21:33:24.818Z,18.83
2018-09-01T21:35:57.121Z,17.60
2018-09-01T21:38:38.748Z,15.77
2018-09-01T21:41:15.593Z,15.83
2018-09-01T21:43:54.404Z,15.53
2018-09-01T21:46:31.097Z,11.13
2018-09-01T21:49:11.618Z,11.00
2018-09-01T21:51:58.246Z,11.33
2018-09-01T21:54:40.422Z,14.73
2018-09-01T21:57:18.877Z,13.53
2018-09-01T22:03:12.733Z,17.43
2018-09-01T22:05:58.231Z,20.00
2018-09-01T22:08:44.920Z,21.87
2018-09-01T22:11:37.584Z,22.13
2018-09-01T22:14:26.083Z,22.30
2018-09-01T22:17:21.132Z,21.00
2018-09-01T22:20:09.693Z,22.70
2018-09-01T22:22:56.753Z,25.27
2018-09-01T22:25:41.987Z,20.70
2018-09-01T22:28:27.159Z,19.77
2018-09-01T22:31:22.295Z,20.13
2018-09-01T22:34:05.238Z,25.23
2018-09-01T22:39:32.341Z,36.37
2018-09-01T22:42:11.766Z,31.93
2018-09-01T22:44:52.114Z,29.47
2018-09-01T22:47:37.278Z,27.40
2018-09-01T22:50:20.108Z,28.13
2018-09-01T22:53:09.865Z,26.73
2018-09-01T22:56:01.942Z,26.80
2018-09-01T22:58:54.055Z,22.10
2018-09-01T23:01:46.329Z,19.47
2018-09-01T23:04:42.161Z,17.87
2018-09-01T23:07:20.051Z,12.43
2018-09-01T23:12:45.990Z,10.30
2018-09-01T23:15:26.854Z,12.23
2018-09-01T23:18:08.338Z,10.40
2018-09-01T23:20:51.752Z,12.07
2018-09-01T23:23:34.003Z,11.43
2018-09-01T23:26:14.842Z,13.60
2018-09-01T23:28:57.801Z,13.87
2018-09-01T23:31:52.222Z,13.63
2018-09-01T23:37:33.670Z,12.23
2018-09-01T23:40:25.644Z,18.23
2018-09-01T23:43:14.420Z,22.90
2018-09-01T23:45:55.946Z,20.00
2018-09-01T23:48:44.344Z,21.90
2018-09-01T23:51:27.059Z,25.37
2018-09-01T23:54:23.708Z,20.97
2018-09-01T23:57:10.537Z,19.10
2018-09-01T23:59:59.766Z,21.27
